createdAt,value
2022-10-28T00:01:28.418Z,24.50
2022-10-28T00:03:58.468Z,23.60
2022-10-28T00:06:28.903Z,24.30
2022-10-28T00:08:57.339Z,23.80
2022-10-28T00:11:30.572Z,22.00
2022-10-28T00:14:00.375Z,22.70
2022-10-28T00:16:32.818Z,23.10
2022-10-28T00:19:01.780Z,24.70
2022-10-28T00:21:31.682Z,25.10
2022-10-28T00:23:59.947Z,25.40
2022-10-28T00:26:32.554Z,23.10
2022-10-28T00:29:03.987Z,23.20
2022-10-28T00:31:32.649Z,23.70
2022-10-28T00:34:02.222Z,24.20
2022-10-28T00:36:35.515Z,22.80
2022-10-28T00:39:39.058Z,22.70
2022-10-28T00:42:39.590Z,22.90
2022-10-28T00:45:12.477Z,24.90
2022-10-28T00:47:56.274Z,23.50
2022-10-28T00:50:58.424Z,24.00
2022-10-28T00:53:30.270Z,24.20
2022-10-28T00:56:00.606Z,23.70
2022-10-28T00:58:29.170Z,25.20
2022-10-28T01:00:57.273Z,25.00
2022-10-28T01:03:25.550Z,25.30
2022-10-28T01:05:55.667Z,23.30
2022-10-28T01:08:24.274Z,23.60
2022-10-28T01:11:29.912Z,24.40
2022-10-28T01:14:06.354Z,23.00
2022-10-28T01:16:58.706Z,23.40
2022-10-28T01:19:46.438Z,25.90
2022-10-28T01:22:39.165Z,25.40
2022-10-28T01:25:21.960Z,23.60
2022-10-28T01:28:03.276Z,23.60
2022-10-28T01:30:56.462Z,23.80
2022-10-28T01:33:32.584Z,22.60
2022-10-28T01:36:13.793Z,23.30
2022-10-28T01:38:50.178Z,24.10
2022-10-28T01:41:21.717Z,23.20
2022-10-28T01:43:59.617Z,24.00
2022-10-28T01:46:51.206Z,23.10
2022-10-28T01:49:25.128Z,25.40
2022-10-28T01:51:59.106Z,24.50
2022-10-28T01:54:29.695Z,24.60
2022-10-28T01:56:58.165Z,25.20
2022-10-28T01:59:28.455Z,24.60
2022-10-28T02:01:57.050Z,24.70
2022-10-28T02:04:25.036Z,23.70
2022-10-28T02:06:54.940Z,23.70
2022-10-28T02:09:40.561Z,22.90
2022-10-28T02:12:25.968Z,23.20
2022-10-28T02:15:23.955Z,22.40
2022-10-28T02:18:02.983Z,24.10
2022-10-28T02:20:55.627Z,22.90
2022-10-28T02:23:49.586Z,21.60
2022-10-28T02:26:20.057Z,22.60
2022-10-28T02:28:57.398Z,22.40
2022-10-28T02:31:32.441Z,22.20
2022-10-28T02:34:13.608Z,22.20
2022-10-28T02:36:46.256Z,22.40
2022-10-28T02:39:17.194Z,21.60
2022-10-28T02:42:27.142Z,22.20
2022-10-28T02:45:16.226Z,21.00
2022-10-28T02:47:51.505Z,22.60
2022-10-28T02:50:26.882Z,22.70
2022-10-28T02:52:58.378Z,21.80
2022-10-28T02:55:34.040Z,24.40
2022-10-28T02:58:02.110Z,22.70
2022-10-28T03:00:32.855Z,23.80
2022-10-28T03:03:01.892Z,22.40
2022-10-28T03:05:30.015Z,22.20
2022-10-28T03:08:00.710Z,20.80
2022-10-28T03:10:28.922Z,22.40
2022-10-28T03:13:00.245Z,22.60
2022-10-28T03:15:28.665Z,22.70
2022-10-28T03:17:56.775Z,22.30
2022-10-28T03:20:25.965Z,21.70
2022-10-28T03:38:36.688Z,20.90
2022-10-28T03:41:07.730Z,19.80
2022-10-28T03:43:35.923Z,21.80
2022-10-28T03:46:05.053Z,21.70
2022-10-28T03:48:33.623Z,22.00
2022-10-28T03:51:01.661Z,20.70
2022-10-28T03:53:31.498Z,22.00
2022-10-28T03:56:03.576Z,21.10
2022-10-28T03:58:35.128Z,22.80
2022-10-28T04:01:07.144Z,22.00
2022-10-28T04:03:37.429Z,21.40
2022-10-28T04:06:06.269Z,21.40
2022-10-28T04:08:37.965Z,21.60
2022-10-28T04:11:06.387Z,22.80
2022-10-28T04:13:35.487Z,22.30
2022-10-28T04:16:05.398Z,22.10
2022-10-28T04:18:42.183Z,20.80
2022-10-28T04:21:14.587Z,21.60
2022-10-28T04:23:43.036Z,20.60
2022-10-28T04:26:15.602Z,21.80
2022-10-28T04:28:43.783Z,20.10
2022-10-28T04:31:14.885Z,20.70
2022-10-28T04:33:45.705Z,19.90
2022-10-28T04:36:13.754Z,20.20
2022-10-28T04:38:41.775Z,20.30
2022-10-28T04:41:13.026Z,19.20
2022-10-28T04:43:41.163Z,19.10
2022-10-28T04:46:09.263Z,19.60
2022-10-28T04:48:37.447Z,18.60
2022-10-28T04:51:05.948Z,18.70
2022-10-28T04:53:36.351Z,19.90
2022-10-28T04:56:07.742Z,19.90
2022-10-28T04:58:38.226Z,21.00
2022-10-28T05:01:10.231Z,21.20
2022-10-28T05:03:49.755Z,21.00
2022-10-28T05:06:20.404Z,20.40
2022-10-28T05:08:48.456Z,21.60
2022-10-28T05:11:18.677Z,21.30
2022-10-28T05:13:48.816Z,20.20
2022-10-28T05:16:21.665Z,21.40
2022-10-28T05:18:49.976Z,20.70
2022-10-28T05:21:25.505Z,20.70
2022-10-28T05:23:58.269Z,19.30
2022-10-28T05:26:29.238Z,19.00
2022-10-28T05:29:20.035Z,20.30
2022-10-28T05:31:48.104Z,21.80
2022-10-28T05:34:17.068Z,20.80
2022-10-28T05:36:44.848Z,21.00
2022-10-28T05:39:13.829Z,19.00
2022-10-28T05:41:43.883Z,18.30
2022-10-28T05:44:14.311Z,20.60
2022-10-28T05:46:42.213Z,18.90
2022-10-28T05:49:10.034Z,19.70
2022-10-28T05:51:40.243Z,20.70
2022-10-28T05:54:08.130Z,21.60
2022-10-28T05:56:40.728Z,19.40
2022-10-28T05:59:12.757Z,21.00
2022-10-28T06:04:25.603Z,20.50
2022-10-28T06:06:55.930Z,21.60
2022-10-28T06:09:24.047Z,21.70
2022-10-28T06:11:52.950Z,20.30
2022-10-28T06:14:24.779Z,18.90
2022-10-28T06:16:59.510Z,19.80
2022-10-28T06:19:28.962Z,19.00
2022-10-28T06:21:59.910Z,19.50
2022-10-28T06:24:32.930Z,19.30
2022-10-28T06:27:00.947Z,19.20
2022-10-28T06:29:33.025Z,18.60
2022-10-28T06:32:00.889Z,19.80
2022-10-28T06:34:29.676Z,19.70
2022-10-28T06:37:00.564Z,18.20
2022-10-28T06:39:28.673Z,18.00
2022-10-28T06:41:56.595Z,19.60
2022-10-28T06:44:27.116Z,20.60
2022-10-28T06:46:57.419Z,20.70
2022-10-28T06:49:25.234Z,18.50
2022-10-28T06:51:59.071Z,19.10
2022-10-28T06:54:35.608Z,17.20
2022-10-28T06:57:06.242Z,18.90
2022-10-28T07:02:07.148Z,16.40
2022-10-28T07:04:35.218Z,19.00
2022-10-28T07:07:10.839Z,21.60
2022-10-28T07:09:39.692Z,21.10
2022-10-28T07:12:10.752Z,19.40
2022-10-28T07:14:45.716Z,20.20
2022-10-28T07:17:22.906Z,18.10
2022-10-28T07:19:52.326Z,18.40
2022-10-28T07:22:25.836Z,17.40
2022-10-28T07:27:23.934Z,18.50
2022-10-28T07:29:54.346Z,19.70
2022-10-28T07:32:24.753Z,17.50
2022-10-28T07:34:53.935Z,17.20
2022-10-28T07:37:22.126Z,17.70
2022-10-28T07:39:50.119Z,18.60
2022-10-28T07:42:18.352Z,17.70
2022-10-28T07:44:52.592Z,17.70
2022-10-28T07:47:23.537Z,17.30
2022-10-28T07:49:52.091Z,17.30
2022-10-28T07:52:21.104Z,16.40
2022-10-28T07:54:50.865Z,17.00
2022-10-28T07:57:19.289Z,16.80
2022-10-28T07:59:47.388Z,17.40
2022-10-28T08:02:20.236Z,18.00
2022-10-28T08:04:48.401Z,17.40
2022-10-28T08:07:17.021Z,17.00
2022-10-28T08:09:51.031Z,16.10
2022-10-28T08:12:19.279Z,16.10
2022-10-28T08:14:47.264Z,15.60
2022-10-28T08:17:15.565Z,16.90
2022-10-28T08:19:45.805Z,17.50
2022-10-28T08:22:14.173Z,17.10
2022-10-28T08:24:44.361Z,17.60
2022-10-28T08:27:15.066Z,18.80
2022-10-28T08:29:45.899Z,19.50
2022-10-28T08:32:13.902Z,17.80
2022-10-28T08:34:46.125Z,16.40
2022-10-28T08:37:17.938Z,16.00
2022-10-28T08:39:49.249Z,15.20
2022-10-28T08:42:39.658Z,14.30
2022-10-28T08:45:22.518Z,14.50
2022-10-28T08:47:56.874Z,15.00
2022-10-28T08:50:32.022Z,14.70
2022-10-28T08:53:08.480Z,13.70
2022-10-28T08:55:39.092Z,17.70
2022-10-28T08:58:24.799Z,17.30
2022-10-28T09:00:54.933Z,21.10
2022-10-28T09:03:35.579Z,15.50
2022-10-28T09:06:08.127Z,15.60
2022-10-28T09:08:41.552Z,14.20
2022-10-28T09:11:56.396Z,12.70
2022-10-28T09:15:14.045Z,18.00
2022-10-28T09:18:06.325Z,13.90
2022-10-28T09:20:53.454Z,13.50
2022-10-28T09:23:30.258Z,14.00
2022-10-28T09:26:28.362Z,13.00
2022-10-28T09:29:01.148Z,12.00
2022-10-28T09:31:36.383Z,13.10
2022-10-28T09:34:25.671Z,12.30
2022-10-28T09:37:27.789Z,12.00
2022-10-28T09:39:57.728Z,13.70
2022-10-28T09:42:29.628Z,11.70
2022-10-28T09:45:13.216Z,13.20
2022-10-28T09:47:43.780Z,12.00
2022-10-28T09:50:18.669Z,10.90
2022-10-28T09:52:56.722Z,10.80
2022-10-28T09:55:24.869Z,11.30
2022-10-28T09:57:53.261Z,10.50
2022-10-28T10:00:21.615Z,10.50
2022-10-28T10:02:54.455Z,10.10
2022-10-28T10:05:22.317Z,10.30
2022-10-28T10:08:05.779Z,10.10
2022-10-28T10:10:49.750Z,10.20
2022-10-28T10:13:24.431Z,8.90
2022-10-28T10:16:00.144Z,9.10
2022-10-28T10:18:39.272Z,9.30
2022-10-28T10:21:07.379Z,9.30
2022-10-28T10:26:12.622Z,7.70
2022-10-28T10:28:44.523Z,8.00
2022-10-28T10:31:23.964Z,6.70
2022-10-28T10:33:56.734Z,7.10
2022-10-28T10:36:28.420Z,7.00
2022-10-28T10:38:58.377Z,7.10
2022-10-28T10:41:40.974Z,5.80
2022-10-28T10:44:21.124Z,5.50
2022-10-28T10:47:21.554Z,4.00
2022-10-28T10:49:52.080Z,3.70
2022-10-28T10:52:24.393Z,3.20
2022-10-28T10:55:03.521Z,3.00
2022-10-28T10:57:35.359Z,2.50
2022-10-28T11:00:04.081Z,3.00
2022-10-28T11:02:42.126Z,2.70
2022-10-28T11:05:22.953Z,2.50
2022-10-28T11:07:56.266Z,2.30
2022-10-28T11:10:36.080Z,3.90
2022-10-28T11:13:35.657Z,2.90
2022-10-28T11:16:18.540Z,2.70
2022-10-28T11:25:47.980Z,2.50
2022-10-28T11:29:57.599Z,2.60
2022-10-28T11:36:26.508Z,2.90
2022-10-28T11:39:34.520Z,2.20
2022-10-28T11:42:08.943Z,2.60
2022-10-28T11:45:11.806Z,1.90
2022-10-28T11:48:29.995Z,2.40
2022-10-28T11:51:38.428Z,3.20
2022-10-28T11:54:23.438Z,2.60
2022-10-28T11:57:00.952Z,2.40
2022-10-28T12:00:38.416Z,2.50
2022-10-28T12:04:24.411Z,3.00
2022-10-28T12:07:35.589Z,3.10
2022-10-28T12:10:46.732Z,3.00
2022-10-28T12:13:38.886Z,2.90
2022-10-28T12:25:44.935Z,2.50
2022-10-28T12:28:34.271Z,2.20
2022-10-28T12:31:02.984Z,2.80
2022-10-28T12:33:39.932Z,2.00
2022-10-28T12:36:07.634Z,2.60
2022-10-28T12:39:20.390Z,2.20
2022-10-28T12:42:03.214Z,2.30
2022-10-28T12:44:32.753Z,2.30
2022-10-28T12:47:09.056Z,2.50
2022-10-28T12:49:49.268Z,2.20
2022-10-28T12:52:27.916Z,2.70
2022-10-28T12:55:04.047Z,2.30
2022-10-28T12:57:34.307Z,2.40
2022-10-28T13:00:24.636Z,2.40
2022-10-28T13:03:02.566Z,2.50
2022-10-28T13:05:51.220Z,2.30
2022-10-28T13:08:24.996Z,2.20
2022-10-28T13:11:21.127Z,2.90
2022-10-28T13:13:55.870Z,2.80
2022-10-28T13:16:50.354Z,3.50
2022-10-28T13:19:27.840Z,2.90
2022-10-28T13:22:14.647Z,2.50
2022-10-28T13:24:52.347Z,2.40
2022-10-28T13:27:20.865Z,2.30
2022-10-28T13:29:55.379Z,2.50
2022-10-28T13:32:41.796Z,2.10
2022-10-28T13:35:16.361Z,2.50
2022-10-28T13:37:46.553Z,2.30
2022-10-28T13:40:31.184Z,2.10
2022-10-28T13:43:00.272Z,2.30
2022-10-28T13:45:48.737Z,2.40
2022-10-28T13:48:42.819Z,2.40
2022-10-28T13:51:10.576Z,2.00
2022-10-28T13:53:47.878Z,2.90
2022-10-28T13:56:28.048Z,2.40
2022-10-28T13:59:12.748Z,2.00
2022-10-28T14:02:32.561Z,2.60
2022-10-28T14:04:59.794Z,2.00
2022-10-28T14:07:30.882Z,2.40
2022-10-28T14:10:22.155Z,2.40
2022-10-28T14:15:48.556Z,2.20
2022-10-28T14:21:06.740Z,2.20
2022-10-28T14:23:36.428Z,2.70
2022-10-28T14:26:05.674Z,3.70
2022-10-28T14:28:33.415Z,2.40
2022-10-28T14:31:13.061Z,3.90
2022-10-28T14:33:46.790Z,4.80
2022-10-28T14:36:17.802Z,3.60
2022-10-28T14:41:48.307Z,2.70
2022-10-28T14:44:34.746Z,2.70
2022-10-28T14:47:27.495Z,2.70
2022-10-28T14:49:59.540Z,2.60
2022-10-28T14:52:29.459Z,2.40
2022-10-28T14:55:02.340Z,3.30
2022-10-28T14:57:33.934Z,3.00
2022-10-28T15:00:05.238Z,2.30
2022-10-28T15:02:34.825Z,3.40
2022-10-28T15:05:14.055Z,3.50
2022-10-28T15:07:42.406Z,2.90
2022-10-28T15:10:38.329Z,3.60
2022-10-28T15:13:15.879Z,3.80
2022-10-28T15:15:53.290Z,3.40
2022-10-28T15:18:26.067Z,3.20
2022-10-28T15:21:11.623Z,4.00
2022-10-28T15:23:39.546Z,3.50
2022-10-28T15:26:15.782Z,3.70
2022-10-28T15:28:43.816Z,3.80
2022-10-28T15:31:11.561Z,4.40
2022-10-28T15:33:41.497Z,4.60
2022-10-28T15:36:18.228Z,4.90
2022-10-28T15:38:53.223Z,4.00
2022-10-28T15:41:30.239Z,4.30
2022-10-28T15:44:00.631Z,3.70
2022-10-28T15:46:29.476Z,4.50
2022-10-28T15:48:59.064Z,4.60
2022-10-28T15:51:27.481Z,3.80
2022-10-28T15:54:10.380Z,3.30
2022-10-28T15:56:58.200Z,3.30
2022-10-28T15:59:26.568Z,4.20
2022-10-28T16:02:02.103Z,3.30
2022-10-28T16:04:33.732Z,3.50
2022-10-28T16:07:08.461Z,3.90
2022-10-28T16:09:45.876Z,3.90
2022-10-28T16:12:16.825Z,4.30
2022-10-28T16:14:47.779Z,5.00
2022-10-28T16:17:23.159Z,5.40
2022-10-28T16:19:53.724Z,5.40
2022-10-28T16:22:23.910Z,6.40
2022-10-28T16:24:53.262Z,5.70
2022-10-28T16:27:23.553Z,4.50
2022-10-28T16:29:51.724Z,4.10
2022-10-28T16:32:33.991Z,3.90
2022-10-28T16:35:04.836Z,3.80
2022-10-28T16:37:34.340Z,3.60
2022-10-28T16:40:02.119Z,3.70
2022-10-28T16:42:35.255Z,4.40
2022-10-28T16:45:05.099Z,4.70
2022-10-28T16:47:32.876Z,5.00
2022-10-28T16:50:01.002Z,4.80
2022-10-28T16:52:30.124Z,5.10
2022-10-28T16:55:02.776Z,5.80
2022-10-28T16:57:33.530Z,6.20
2022-10-28T17:00:04.217Z,5.90
2022-10-28T17:02:36.465Z,6.00
2022-10-28T17:05:12.418Z,5.10
2022-10-28T17:08:04.397Z,6.40
2022-10-28T17:10:45.293Z,5.50
2022-10-28T17:13:32.056Z,5.70
2022-10-28T17:16:02.422Z,6.10
2022-10-28T17:18:30.471Z,7.30
2022-10-28T17:21:02.670Z,6.70
2022-10-28T17:23:32.962Z,6.60
2022-10-28T17:26:02.678Z,6.00
2022-10-28T17:28:30.935Z,6.90
2022-10-28T17:31:08.279Z,5.40
2022-10-28T17:33:48.337Z,6.10
2022-10-28T17:36:28.467Z,6.80
2022-10-28T17:39:00.933Z,6.40
2022-10-28T17:41:29.169Z,6.20
2022-10-28T17:43:59.679Z,6.80
2022-10-28T17:46:36.081Z,6.60
2022-10-28T17:49:11.161Z,6.10
2022-10-28T17:51:53.179Z,6.60
2022-10-28T17:54:51.062Z,6.50
2022-10-28T17:58:11.203Z,6.40
2022-10-28T18:04:19.948Z,6.00
2022-10-28T18:07:14.039Z,6.70
2022-10-28T18:09:42.238Z,7.50
2022-10-28T18:12:12.559Z,7.40
2022-10-28T18:14:40.647Z,8.40
2022-10-28T18:17:08.636Z,7.80
2022-10-28T18:19:36.744Z,6.50
2022-10-28T18:22:04.516Z,6.10
2022-10-28T18:24:32.374Z,7.00
2022-10-28T18:27:00.389Z,8.00
2022-10-28T18:29:28.481Z,6.40
2022-10-28T18:31:56.727Z,7.10
2022-10-28T18:34:25.172Z,6.70
2022-10-28T18:36:53.116Z,6.10
2022-10-28T18:39:20.880Z,6.80
2022-10-28T18:41:48.680Z,5.70
2022-10-28T18:44:20.047Z,6.00
2022-10-28T18:46:47.962Z,5.60
2022-10-28T18:49:15.728Z,5.20
2022-10-28T18:51:43.785Z,6.50
2022-10-28T18:54:11.590Z,6.10
2022-10-28T18:56:40.262Z,5.40
2022-10-28T18:59:08.815Z,5.20
2022-10-28T19:01:38.907Z,5.50
2022-10-28T19:04:06.755Z,5.90
2022-10-28T19:06:34.822Z,5.70
2022-10-28T19:09:04.854Z,6.20
2022-10-28T19:11:34.153Z,6.10
2022-10-28T19:15:24.172Z,7.10
2022-10-28T19:17:57.120Z,6.80
2022-10-28T19:20:29.016Z,7.40
2022-10-28T19:22:59.004Z,7.60
2022-10-28T19:28:39.345Z,8.10
2022-10-28T19:31:42.020Z,8.20
2022-10-28T19:34:18.244Z,7.20
2022-10-28T19:37:00.077Z,7.00
2022-10-28T19:39:35.102Z,6.90
2022-10-28T19:42:13.429Z,8.20
2022-10-28T19:44:53.046Z,6.40
2022-10-28T19:47:32.768Z,7.50
2022-10-28T19:50:17.206Z,6.30
2022-10-28T19:53:00.869Z,7.70
2022-10-28T19:55:46.429Z,6.80
2022-10-28T19:58:43.603Z,7.20
2022-10-28T20:01:28.844Z,7.40
2022-10-28T20:03:57.616Z,6.70
2022-10-28T20:06:30.877Z,6.20
2022-10-28T20:09:09.901Z,5.90
2022-10-28T20:11:39.336Z,6.80
2022-10-28T20:14:15.844Z,6.40
2022-10-28T20:16:49.358Z,6.80
2022-10-28T20:19:20.277Z,8.40
2022-10-28T20:21:54.699Z,7.70
2022-10-28T20:24:26.991Z,8.60
2022-10-28T20:26:55.559Z,9.20
2022-10-28T20:29:24.234Z,9.60
2022-10-28T20:31:53.888Z,10.50
2022-10-28T20:34:22.203Z,11.30
2022-10-28T20:36:52.166Z,10.40
2022-10-28T20:39:21.319Z,7.60
2022-10-28T20:41:53.433Z,8.90
2022-10-28T20:44:21.240Z,9.00
2022-10-28T20:46:51.526Z,10.10
2022-10-28T20:49:20.595Z,9.40
2022-10-28T20:51:49.668Z,8.50
2022-10-28T20:54:20.351Z,7.60
2022-10-28T20:56:48.181Z,8.00
2022-10-28T20:59:15.967Z,7.00
2022-10-28T21:01:49.884Z,8.50
2022-10-28T21:04:17.956Z,8.70
2022-10-28T21:06:46.049Z,9.00
2022-10-28T21:09:14.012Z,8.90
2022-10-28T21:11:44.706Z,8.90
2022-10-28T21:14:15.283Z,8.60
2022-10-28T21:16:45.628Z,8.60
2022-10-28T21:19:16.539Z,10.30
2022-10-28T21:21:45.585Z,9.80
2022-10-28T21:24:15.803Z,8.60
2022-10-28T21:26:46.068Z,9.60
2022-10-28T21:29:22.234Z,9.00
2022-10-28T21:31:50.353Z,9.50
2022-10-28T21:34:18.207Z,10.80
2022-10-28T21:36:46.091Z,12.00
2022-10-28T21:39:13.944Z,12.30
2022-10-28T21:41:44.581Z,12.20
2022-10-28T21:44:26.353Z,12.10
2022-10-28T21:46:57.723Z,12.20
2022-10-28T21:49:25.835Z,9.30
2022-10-28T21:51:53.705Z,10.30
2022-10-28T21:54:21.615Z,11.30
2022-10-28T21:56:54.970Z,10.80
2022-10-28T21:59:22.871Z,10.60
2022-10-28T22:02:11.271Z,10.00
2022-10-28T22:04:39.609Z,10.10
2022-10-28T22:07:07.581Z,9.20
2022-10-28T22:09:37.544Z,9.40
2022-10-28T22:12:13.343Z,9.60
2022-10-28T22:14:49.895Z,10.60
2022-10-28T22:17:21.231Z,10.90
2022-10-28T22:19:49.140Z,10.60
2022-10-28T22:22:16.893Z,10.30
2022-10-28T22:27:35.051Z,9.80
2022-10-28T22:30:09.326Z,9.20
2022-10-28T22:33:00.235Z,10.10
2022-10-28T22:35:27.086Z,10.50
2022-10-28T22:41:49.535Z,8.70
2022-10-28T22:44:26.762Z,9.30
2022-10-28T22:47:24.072Z,10.10
2022-10-28T22:49:57.915Z,9.00
2022-10-28T22:52:49.108Z,8.60
2022-10-28T22:55:50.937Z,8.70
2022-10-28T22:58:23.118Z,8.60
2022-10-28T23:00:51.183Z,8.80
2022-10-28T23:03:19.254Z,7.70
2022-10-28T23:05:47.051Z,9.20
2022-10-28T23:08:15.752Z,9.00
2022-10-28T23:10:51.614Z,7.90
2022-10-28T23:13:21.528Z,8.20
2022-10-28T23:15:49.389Z,8.00
2022-10-28T23:18:17.305Z,8.50
2022-10-28T23:20:45.116Z,8.30
2022-10-28T23:23:13.014Z,8.40
2022-10-28T23:25:40.856Z,8.80
2022-10-28T23:28:08.835Z,8.40
2022-10-28T23:30:36.878Z,8.50
2022-10-28T23:33:04.848Z,8.90
2022-10-28T23:35:34.695Z,10.30
2022-10-28T23:38:05.404Z,8.70
2022-10-28T23:40:33.350Z,8.30
2022-10-28T23:43:03.809Z,8.10
2022-10-28T23:45:31.751Z,8.60
2022-10-28T23:47:59.653Z,8.40
2022-10-28T23:50:27.634Z,8.80
2022-10-28T23:52:56.061Z,8.40
2022-10-28T23:55:25.715Z,8.00
2022-10-28T23:57:57.452Z,9.10
